Time;durP1;ratioP1;P1;durP2;ratioP2;P2;SDS_P1;SDS_P2;PMS_P1;PMS_P2;Temp;Humidity;BMP_temperature;BMP_pressure;BME280_temperature;BME280_humidity;BME280_pressure;Samples;Min_cycle;Max_cycle;Signal;HPM_P1;HPM_P2
2022/01/19 00:01:33;;;;;;;13.00;9.68;;;;;;;;;;5017372;28;20168;-67
2022/01/19 00:03:58;;;;;;;12.32;9.27;;;;;;;;;;5029253;28;20116;-67
2022/01/19 00:06:23;;;;;;;12.82;9.23;;;;;;;;;;5030313;28;20083;-67
2022/01/19 00:08:49;;;;;;;12.43;9.75;;;;;;;;;;5030332;28;20120;-67
2022/01/19 00:11:14;;;;;;;15.00;10.13;;;;;;;;;;5031051;28;20022;-67
2022/01/19 00:13:40;;;;;;;13.32;9.15;;;;;;;;;;5024161;28;20540;-67
2022/01/19 00:16:05;;;;;;;14.35;9.07;;;;;;;;;;5029914;28;20063;-68
2022/01/19 00:18:30;;;;;;;10.35;7.53;;;;;;;;;;5031438;28;20075;-67
2022/01/19 00:20:56;;;;;;;9.18;7.05;;;;;;;;;;5030908;28;20025;-67
2022/01/19 00:23:21;;;;;;;11.82;8.38;;;;;;;;;;5029601;28;20028;-68
2022/01/19 00:25:47;;;;;;;10.07;7.65;;;;;;;;;;5029725;28;20493;-67
2022/01/19 00:28:12;;;;;;;9.38;7.50;;;;;;;;;;5031566;28;20482;-68
2022/01/19 00:30:38;;;;;;;10.52;8.48;;;;;;;;;;5031050;28;20067;-68
2022/01/19 00:33:03;;;;;;;10.63;8.50;;;;;;;;;;5030428;28;20394;-67
2022/01/19 00:35:29;;;;;;;11.15;7.15;;;;;;;;;;5031024;28;20108;-68
2022/01/19 00:37:54;;;;;;;9.25;7.55;;;;;;;;;;5029957;28;20129;-67
2022/01/19 00:40:19;;;;;;;9.45;7.55;;;;;;;;;;5030354;28;20057;-67
2022/01/19 00:42:45;;;;;;;9.35;6.82;;;;;;;;;;5025459;28;20433;-67
2022/01/19 00:45:11;;;;;;;10.90;7.38;;;;;;;;;;5030711;28;20021;-68
2022/01/19 00:47:37;;;;;;;9.13;5.97;;;;;;;;;;5030679;28;20076;-67
2022/01/19 00:50:03;;;;;;;3.92;3.50;;;;;;;;;;5031388;28;20018;-67
2022/01/19 00:52:29;;;;;;;6.30;4.72;;;;;;;;;;5032969;28;20025;-67
2022/01/19 00:54:54;;;;;;;8.40;6.40;;;;;;;;;;5031289;28;20514;-67
2022/01/19 00:57:19;;;;;;;8.85;6.88;;;;;;;;;;5029533;28;20509;-67
2022/01/19 00:59:44;;;;;;;9.07;7.05;;;;;;;;;;5022131;28;20402;-67
2022/01/19 01:02:09;;;;;;;8.32;6.88;;;;;;;;;;5021288;28;20512;-67
2022/01/19 01:04:35;;;;;;;9.93;7.13;;;;;;;;;;5034038;28;20406;-67
2022/01/19 01:07:00;;;;;;;7.03;5.20;;;;;;;;;;5032964;28;20474;-67
2022/01/19 01:09:26;;;;;;;8.48;6.72;;;;;;;;;;5032041;28;20500;-67
2022/01/19 01:12:09;;;;;;;7.15;5.85;;;;;;;;;;5027190;28;20022;-67
2022/01/19 01:20:05;;;;;;;7.00;5.03;;;;;;;;;;5032631;28;20076;-67
2022/01/19 01:22:31;;;;;;;7.75;6.07;;;;;;;;;;5033846;28;20025;-67
2022/01/19 01:24:56;;;;;;;9.40;6.45;;;;;;;;;;5027816;28;20048;-67
2022/01/19 01:27:21;;;;;;;7.35;5.55;;;;;;;;;;5034538;28;20029;-67
2022/01/19 01:29:46;;;;;;;8.20;5.45;;;;;;;;;;5024592;28;20470;-68
2022/01/19 01:32:12;;;;;;;7.90;4.43;;;;;;;;;;5025634;28;20033;-67
2022/01/19 01:34:37;;;;;;;6.75;5.80;;;;;;;;;;5030469;28;20505;-68
2022/01/19 01:37:02;;;;;;;7.68;6.13;;;;;;;;;;5028846;28;20036;-68
2022/01/19 01:39:28;;;;;;;7.35;5.78;;;;;;;;;;5024747;28;20064;-68
2022/01/19 01:41:53;;;;;;;5.30;3.65;;;;;;;;;;5006511;28;20043;-68
2022/01/19 01:44:18;;;;;;;4.88;2.90;;;;;;;;;;5024800;28;20161;-68
2022/01/19 01:46:58;;;;;;;5.43;3.95;;;;;;;;;;5023753;28;20039;-68
2022/01/19 01:54:59;;;;;;;4.82;4.30;;;;;;;;;;5023282;28;20059;-68
2022/01/19 01:57:26;;;;;;;5.70;4.13;;;;;;;;;;5026669;28;20159;-68
2022/01/19 01:59:51;;;;;;;4.43;3.33;;;;;;;;;;5023173;28;20355;-68
2022/01/19 02:02:16;;;;;;;7.53;4.85;;;;;;;;;;5029399;28;20117;-68
2022/01/19 02:04:41;;;;;;;7.00;5.20;;;;;;;;;;5031351;28;20417;-68
2022/01/19 02:09:52;;;;;;;9.55;6.70;;;;;;;;;;5032990;28;20450;-68
2022/01/19 02:25:44;;;;;;;5.63;4.15;;;;;;;;;;5029967;28;20037;-68
2022/01/19 02:41:41;;;;;;;9.35;6.25;;;;;;;;;;5028631;28;20041;-68
2022/01/19 02:44:09;;;;;;;10.00;5.85;;;;;;;;;;5033703;28;20039;-68
2022/01/19 02:49:16;;;;;;;7.10;4.88;;;;;;;;;;5032837;28;20460;-67
2022/01/19 02:51:46;;;;;;;4.32;3.47;;;;;;;;;;5034652;28;20049;-68
2022/01/19 02:54:16;;;;;;;2.90;2.40;;;;;;;;;;5029613;28;20049;-67
2022/01/19 02:56:45;;;;;;;2.95;2.00;;;;;;;;;;5029066;28;20271;-67
2022/01/19 02:59:18;;;;;;;2.10;1.90;;;;;;;;;;5027895;28;20029;-67
2022/01/19 03:09:43;;;;;;;2.47;2.10;;;;;;;;;;5030411;28;20121;-67
2022/01/19 03:12:08;;;;;;;2.33;2.10;;;;;;;;;;5032860;28;21077;-67
2022/01/19 03:14:34;;;;;;;2.70;2.20;;;;;;;;;;5037943;28;20033;-67
2022/01/19 03:16:59;;;;;;;3.05;2.50;;;;;;;;;;5014034;28;20076;-67
2022/01/19 03:19:26;;;;;;;3.85;2.55;;;;;;;;;;5029220;28;20482;-67
2022/01/19 03:21:51;;;;;;;2.83;2.58;;;;;;;;;;5030861;28;20026;-67
2022/01/19 03:24:17;;;;;;;4.53;2.30;;;;;;;;;;5028686;28;20167;-67
2022/01/19 03:26:42;;;;;;;3.08;2.63;;;;;;;;;;5028193;28;20112;-68
2022/01/19 03:29:07;;;;;;;3.00;2.70;;;;;;;;;;5029865;28;20040;-67
2022/01/19 03:31:32;;;;;;;2.75;2.22;;;;;;;;;;5028270;28;20079;-68
2022/01/19 03:33:57;;;;;;;3.97;2.75;;;;;;;;;;5029090;28;20017;-67
2022/01/19 03:36:23;;;;;;;3.42;3.00;;;;;;;;;;5030703;28;20056;-68
2022/01/19 03:38:48;;;;;;;3.00;2.80;;;;;;;;;;5030125;28;20053;-67
2022/01/19 03:41:13;;;;;;;3.05;2.40;;;;;;;;;;5028398;28;20047;-67
2022/01/19 03:43:38;;;;;;;2.55;2.20;;;;;;;;;;5024241;28;20049;-68
2022/01/19 03:46:12;;;;;;;2.53;2.33;;;;;;;;;;5035754;28;20017;-67
2022/01/19 03:48:54;;;;;;;2.33;1.92;;;;;;;;;;5044995;28;20124;-67
2022/01/19 03:51:20;;;;;;;2.13;1.90;;;;;;;;;;5028898;28;20532;-67
2022/01/19 03:53:46;;;;;;;1.63;1.52;;;;;;;;;;5028119;28;20045;-68
2022/01/19 03:56:11;;;;;;;2.08;1.95;;;;;;;;;;5029398;28;20101;-67
2022/01/19 03:58:36;;;;;;;2.08;1.92;;;;;;;;;;5027061;28;20021;-67
2022/01/19 04:01:03;;;;;;;2.97;2.38;;;;;;;;;;5028813;28;20025;-67
2022/01/19 04:03:52;;;;;;;2.40;2.20;;;;;;;;;;5012828;28;20084;-67
2022/01/19 04:08:45;;;;;;;3.45;2.63;;;;;;;;;;5032035;28;20025;-67
2022/01/19 04:11:10;;;;;;;4.13;3.47;;;;;;;;;;5028950;28;20112;-67
2022/01/19 04:13:58;;;;;;;4.10;3.70;;;;;;;;;;5027495;28;20053;-67
2022/01/19 04:16:23;;;;;;;3.78;3.20;;;;;;;;;;5027685;28;20028;-67
2022/01/19 04:18:52;;;;;;;5.00;3.50;;;;;;;;;;5047014;28;20025;-67
2022/01/19 04:21:17;;;;;;;4.43;3.50;;;;;;;;;;5030787;28;20032;-67
2022/01/19 04:23:42;;;;;;;3.65;3.33;;;;;;;;;;5031942;28;20025;-67
2022/01/19 04:26:07;;;;;;;4.43;3.42;;;;;;;;;;5039555;28;20108;-67
2022/01/19 04:28:34;;;;;;;3.95;3.25;;;;;;;;;;5029914;28;20116;-67
2022/01/19 04:30:59;;;;;;;3.10;2.80;;;;;;;;;;5013949;28;20165;-67
2022/01/19 04:33:26;;;;;;;3.47;2.88;;;;;;;;;;5028829;28;20108;-68
2022/01/19 04:35:54;;;;;;;3.40;2.83;;;;;;;;;;5030580;28;20033;-67
2022/01/19 04:44:09;;;;;;;3.50;3.20;;;;;;;;;;5029014;28;20076;-67
2022/01/19 05:15:27;;;;;;;3.28;2.97;;;;;;;;;;5036527;28;20612;-68
2022/01/19 05:17:52;;;;;;;3.65;3.20;;;;;;;;;;5038170;28;20112;-68
2022/01/19 05:20:17;;;;;;;3.13;2.83;;;;;;;;;;5031468;28;20026;-68
2022/01/19 05:22:42;;;;;;;3.35;3.05;;;;;;;;;;5033968;28;20051;-68
2022/01/19 05:25:08;;;;;;;4.03;3.33;;;;;;;;;;5026713;28;20463;-67
2022/01/19 05:27:33;;;;;;;3.85;3.45;;;;;;;;;;5031901;28;20159;-67
2022/01/19 05:29:58;;;;;;;4.00;3.50;;;;;;;;;;5033280;28;20100;-67
2022/01/19 05:32:24;;;;;;;4.20;3.15;;;;;;;;;;5031180;28;20032;-67
2022/01/19 05:34:49;;;;;;;3.70;3.20;;;;;;;;;;5032402;28;20021;-67
2022/01/19 05:37:14;;;;;;;3.22;2.88;;;;;;;;;;5015606;28;20032;-67
2022/01/19 05:39:39;;;;;;;2.78;2.53;;;;;;;;;;5033678;28;20022;-66
2022/01/19 05:42:05;;;;;;;3.78;3.13;;;;;;;;;;5026645;28;20116;-66
2022/01/19 05:44:30;;;;;;;4.55;3.03;;;;;;;;;;5007563;28;20406;-67
2022/01/19 05:46:55;;;;;;;3.60;3.30;;;;;;;;;;5014376;28;20040;-67
2022/01/19 05:49:20;;;;;;;4.07;3.30;;;;;;;;;;5032113;28;20120;-67
2022/01/19 05:51:47;;;;;;;3.35;3.05;;;;;;;;;;5025355;28;20026;-66
2022/01/19 05:54:13;;;;;;;3.67;2.90;;;;;;;;;;5020151;28;20520;-66
2022/01/19 05:56:38;;;;;;;3.50;3.20;;;;;;;;;;5031714;28;20029;-66
2022/01/19 05:59:03;;;;;;;4.00;3.58;;;;;;;;;;5031915;28;20033;-66
2022/01/19 06:01:28;;;;;;;4.05;3.65;;;;;;;;;;5031981;28;20075;-66
2022/01/19 06:03:53;;;;;;;3.80;3.42;;;;;;;;;;5025823;28;20080;-66
2022/01/19 06:06:19;;;;;;;4.03;3.60;;;;;;;;;;5021189;28;20025;-66
2022/01/19 06:08:48;;;;;;;4.03;3.63;;;;;;;;;;5041096;28;20408;-66
2022/01/19 06:11:13;;;;;;;3.95;3.55;;;;;;;;;;5019195;28;20152;-66
2022/01/19 06:13:38;;;;;;;4.80;3.88;;;;;;;;;;5015557;28;20120;-66
2022/01/19 06:16:03;;;;;;;4.53;3.90;;;;;;;;;;5030240;28;20504;-66
2022/01/19 06:18:29;;;;;;;4.57;4.05;;;;;;;;;;5026977;28;20029;-66
2022/01/19 06:20:54;;;;;;;4.85;3.70;;;;;;;;;;5028287;28;20050;-67
2022/01/19 06:23:19;;;;;;;4.60;4.10;;;;;;;;;;5025723;28;20489;-67
2022/01/19 06:25:44;;;;;;;5.70;4.68;;;;;;;;;;5033374;28;20026;-66
2022/01/19 06:28:10;;;;;;;5.05;4.55;;;;;;;;;;5032811;28;20076;-67
2022/01/19 06:30:35;;;;;;;5.40;4.85;;;;;;;;;;5017633;28;20010;-66
2022/01/19 06:33:00;;;;;;;5.97;4.93;;;;;;;;;;5021220;28;20056;-66
2022/01/19 06:35:26;;;;;;;6.90;5.17;;;;;;;;;;5047858;28;20492;-66
2022/01/19 06:37:51;;;;;;;7.97;6.30;;;;;;;;;;5047000;28;20021;-66
2022/01/19 06:40:17;;;;;;;6.60;5.90;;;;;;;;;;5031196;28;20028;-66
2022/01/19 06:42:42;;;;;;;8.63;6.13;;;;;;;;;;5025139;28;20063;-67
2022/01/19 06:45:08;;;;;;;6.70;5.80;;;;;;;;;;5029540;28;20052;-67
2022/01/19 06:47:33;;;;;;;9.27;6.57;;;;;;;;;;5029546;28;20026;-67
2022/01/19 06:49:58;;;;;;;8.03;6.40;;;;;;;;;;5023314;28;20056;-67
2022/01/19 06:52:24;;;;;;;8.17;6.17;;;;;;;;;;5042219;28;20028;-67
2022/01/19 06:54:49;;;;;;;7.67;6.30;;;;;;;;;;5036689;28;20102;-66
2022/01/19 06:57:14;;;;;;;7.90;5.77;;;;;;;;;;5029421;28;20048;-66
2022/01/19 06:59:39;;;;;;;9.43;6.50;;;;;;;;;;5030694;28;20397;-66
2022/01/19 07:02:05;;;;;;;11.10;7.67;;;;;;;;;;5022879;28;20366;-66
2022/01/19 07:04:31;;;;;;;7.70;5.60;;;;;;;;;;5031096;28;20017;-66
2022/01/19 07:06:56;;;;;;;9.33;7.13;;;;;;;;;;5034525;28;20477;-66
2022/01/19 07:09:21;;;;;;;7.97;5.60;;;;;;;;;;5041254;28;20391;-66
2022/01/19 07:11:47;;;;;;;9.03;6.73;;;;;;;;;;5043060;28;20030;-66
2022/01/19 07:14:13;;;;;;;8.90;5.90;;;;;;;;;;5017931;28;20036;-66
2022/01/19 07:16:38;;;;;;;7.80;5.80;;;;;;;;;;5029480;28;20032;-67
2022/01/19 07:19:04;;;;;;;7.87;5.60;;;;;;;;;;5039423;28;20021;-67
2022/01/19 07:21:29;;;;;;;6.80;5.50;;;;;;;;;;5022404;28;20026;-67
2022/01/19 07:23:54;;;;;;;7.30;5.50;;;;;;;;;;5018837;28;20578;-67
2022/01/19 07:26:19;;;;;;;8.93;5.50;;;;;;;;;;5030313;28;20440;-67
2022/01/19 07:28:45;;;;;;;8.47;6.23;;;;;;;;;;5037269;28;20025;-67
2022/01/19 07:31:10;;;;;;;9.27;6.57;;;;;;;;;;5032931;28;20024;-67
2022/01/19 07:33:35;;;;;;;7.73;5.83;;;;;;;;;;5016130;28;20034;-66
2022/01/19 07:36:00;;;;;;;6.93;5.43;;;;;;;;;;5031806;28;20017;-67
2022/01/19 07:38:26;;;;;;;7.60;6.03;;;;;;;;;;5011318;28;20510;-66
2022/01/19 07:40:52;;;;;;;6.87;5.37;;;;;;;;;;5017015;28;20030;-67
2022/01/19 07:43:17;;;;;;;6.80;5.90;;;;;;;;;;5023488;28;20028;-66
2022/01/19 07:45:42;;;;;;;6.47;5.27;;;;;;;;;;5030292;28;20029;-67
2022/01/19 07:48:08;;;;;;;6.17;4.70;;;;;;;;;;5031524;28;20021;-66
2022/01/19 07:50:33;;;;;;;5.53;4.47;;;;;;;;;;5028253;28;20079;-66
2022/01/19 07:52:58;;;;;;;8.43;6.20;;;;;;;;;;5035389;28;20037;-66
2022/01/19 07:55:24;;;;;;;7.72;6.18;;;;;;;;;;5030306;28;20124;-67
2022/01/19 07:57:51;;;;;;;5.72;4.40;;;;;;;;;;5031548;28;20046;-67
2022/01/19 08:00:16;;;;;;;5.93;4.72;;;;;;;;;;5026222;28;20022;-67
2022/01/19 08:02:42;;;;;;;5.43;4.20;;;;;;;;;;5030298;28;20038;-67
2022/01/19 08:05:16;;;;;;;4.38;3.60;;;;;;;;;;5031260;28;20030;-66
2022/01/19 08:07:42;;;;;;;4.15;2.92;;;;;;;;;;5031192;28;20024;-67
2022/01/19 08:10:08;;;;;;;3.55;2.55;;;;;;;;;;5024680;28;20030;-67
2022/01/19 08:12:33;;;;;;;3.22;2.88;;;;;;;;;;5016051;28;20029;-66
2022/01/19 08:14:59;;;;;;;3.65;2.63;;;;;;;;;;5021105;28;20029;-67
2022/01/19 08:17:26;;;;;;;3.10;2.28;;;;;;;;;;5029604;28;20029;-66
2022/01/19 08:19:52;;;;;;;2.67;2.47;;;;;;;;;;5033826;28;20029;-67
2022/01/19 08:22:17;;;;;;;2.80;2.05;;;;;;;;;;5021864;28;20048;-68
2022/01/19 08:24:42;;;;;;;2.80;2.55;;;;;;;;;;5034336;28;20042;-68
2022/01/19 08:27:07;;;;;;;3.05;2.55;;;;;;;;;;5018249;28;20441;-67
2022/01/19 08:29:33;;;;;;;3.40;3.10;;;;;;;;;;5032356;28;20475;-68
2022/01/19 08:31:58;;;;;;;3.50;2.90;;;;;;;;;;5026071;28;20482;-68
2022/01/19 08:34:23;;;;;;;4.22;3.50;;;;;;;;;;5029144;28;20569;-67
2022/01/19 08:36:48;;;;;;;3.33;2.97;;;;;;;;;;5034135;28;20041;-68
2022/01/19 08:39:13;;;;;;;3.53;3.08;;;;;;;;;;5033424;28;20053;-66
2022/01/19 08:41:39;;;;;;;4.38;3.53;;;;;;;;;;5030855;28;20087;-66
2022/01/19 08:44:04;;;;;;;3.97;3.58;;;;;;;;;;5013506;28;20033;-66
2022/01/19 08:46:29;;;;;;;3.50;3.13;;;;;;;;;;5015571;28;20076;-67
2022/01/19 08:48:55;;;;;;;4.85;3.65;;;;;;;;;;5031715;28;20029;-67
2022/01/19 08:51:20;;;;;;;4.07;3.65;;;;;;;;;;5028788;28;20056;-67
2022/01/19 08:53:45;;;;;;;3.38;2.97;;;;;;;;;;5045763;28;20091;-67
2022/01/19 08:56:10;;;;;;;3.40;2.92;;;;;;;;;;5015196;28;20117;-66
2022/01/19 08:58:35;;;;;;;5.28;3.95;;;;;;;;;;5031925;28;20025;-66
2022/01/19 09:01:01;;;;;;;4.70;4.30;;;;;;;;;;5033608;28;20032;-66
2022/01/19 09:03:28;;;;;;;4.05;3.65;;;;;;;;;;5031444;28;20033;-66
2022/01/19 09:05:53;;;;;;;4.90;4.40;;;;;;;;;;5033711;28;20033;-66
2022/01/19 09:08:18;;;;;;;3.83;3.42;;;;;;;;;;5037879;28;20032;-66
2022/01/19 09:10:47;;;;;;;3.63;3.33;;;;;;;;;;5030486;28;20021;-65
2022/01/19 09:13:12;;;;;;;3.90;3.50;;;;;;;;;;5025877;28;20021;-64
2022/01/19 09:15:37;;;;;;;4.53;3.58;;;;;;;;;;5002806;28;20061;-66
2022/01/19 09:18:02;;;;;;;3.40;2.80;;;;;;;;;;5041830;28;20030;-62
2022/01/19 09:20:28;;;;;;;3.13;2.83;;;;;;;;;;5031149;28;20025;-64
2022/01/19 09:22:53;;;;;;;2.72;2.53;;;;;;;;;;5030002;28;20021;-66
2022/01/19 09:25:18;;;;;;;3.40;3.08;;;;;;;;;;5028349;28;20515;-66
2022/01/19 09:27:44;;;;;;;2.70;2.50;;;;;;;;;;5029742;28;20481;-66
2022/01/19 09:30:11;;;;;;;4.00;3.03;;;;;;;;;;5036817;28;20022;-66
2022/01/19 09:32:36;;;;;;;3.30;3.00;;;;;;;;;;5032707;28;20535;-67
2022/01/19 09:35:07;;;;;;;3.17;2.75;;;;;;;;;;5032593;28;20029;-66
2022/01/19 09:37:33;;;;;;;3.25;2.95;;;;;;;;;;5027963;28;20537;-67
2022/01/19 09:39:59;;;;;;;2.63;2.42;;;;;;;;;;5029247;28;20026;-67
2022/01/19 09:42:24;;;;;;;3.13;2.65;;;;;;;;;;5022205;28;20024;-66
2022/01/19 09:44:49;;;;;;;3.58;2.88;;;;;;;;;;5019025;28;20022;-66
2022/01/19 09:47:14;;;;;;;3.25;2.72;;;;;;;;;;5024711;28;20128;-66
2022/01/19 09:49:40;;;;;;;3.13;2.80;;;;;;;;;;5033184;28;20497;-66
2022/01/19 09:52:05;;;;;;;3.10;2.80;;;;;;;;;;5017895;28;20422;-66
2022/01/19 09:54:30;;;;;;;2.30;2.10;;;;;;;;;;5033138;28;20091;-66
2022/01/19 09:56:56;;;;;;;2.00;1.80;;;;;;;;;;5032791;28;20116;-66
2022/01/19 09:59:22;;;;;;;2.58;2.38;;;;;;;;;;5012262;28;20122;-65
2022/01/19 10:01:48;;;;;;;2.58;2.38;;;;;;;;;;5032431;28;20021;-65
2022/01/19 10:04:18;;;;;;;2.22;2.05;;;;;;;;;;5032302;28;20025;-66
2022/01/19 10:06:43;;;;;;;2.95;2.42;;;;;;;;;;5033517;28;20060;-65
2022/01/19 10:09:08;;;;;;;3.38;2.35;;;;;;;;;;5011952;28;20045;-66
2022/01/19 10:16:59;;;;;;;2.58;2.10;;;;;;;;;;5024875;28;20072;-65
2022/01/19 10:19:27;;;;;;;2.38;2.10;;;;;;;;;;5033387;28;20028;-66
2022/01/19 10:22:00;;;;;;;2.33;2.13;;;;;;;;;;5024495;28;20094;-66
2022/01/19 10:24:46;;;;;;;2.38;2.17;;;;;;;;;;5038801;28;20056;-65
2022/01/19 10:27:30;;;;;;;2.00;1.90;;;;;;;;;;5017482;28;20017;-65
2022/01/19 10:30:02;;;;;;;3.10;2.20;;;;;;;;;;5036372;28;20018;-65
2022/01/19 10:32:27;;;;;;;1.83;1.73;;;;;;;;;;5032506;28;20017;-65
2022/01/19 10:34:53;;;;;;;1.95;1.75;;;;;;;;;;5025359;28;20038;-64
2022/01/19 10:37:25;;;;;;;1.80;1.70;;;;;;;;;;5030628;28;20055;-65
2022/01/19 10:39:51;;;;;;;2.53;2.33;;;;;;;;;;5041497;28;20024;-66
2022/01/19 10:42:25;;;;;;;2.15;2.00;;;;;;;;;;5026281;28;20105;-67
2022/01/19 10:45:01;;;;;;;2.67;2.47;;;;;;;;;;5017702;28;20026;-67
2022/01/19 10:47:44;;;;;;;2.72;2.13;;;;;;;;;;5030566;28;20018;-67
2022/01/19 10:50:11;;;;;;;1.80;1.70;;;;;;;;;;5028961;28;20029;-67
2022/01/19 10:52:39;;;;;;;2.15;1.95;;;;;;;;;;5029759;28;20018;-67
2022/01/19 10:55:06;;;;;;;2.00;1.90;;;;;;;;;;5032835;28;20032;-67
2022/01/19 10:57:32;;;;;;;1.80;1.70;;;;;;;;;;5047526;28;20030;-68
2022/01/19 11:00:13;;;;;;;2.05;1.88;;;;;;;;;;5023406;28;20072;-67
2022/01/19 11:02:38;;;;;;;2.17;1.98;;;;;;;;;;5041559;28;20021;-68
2022/01/19 11:05:03;;;;;;;1.85;1.75;;;;;;;;;;5032230;28;20018;-67
2022/01/19 11:07:29;;;;;;;2.40;2.00;;;;;;;;;;5032478;28;20263;-67
2022/01/19 11:10:00;;;;;;;1.77;1.67;;;;;;;;;;5032621;28;20022;-67
2022/01/19 11:12:32;;;;;;;2.03;1.92;;;;;;;;;;5023384;28;20022;-67
2022/01/19 11:14:58;;;;;;;2.10;2.00;;;;;;;;;;5026459;28;20021;-68
2022/01/19 11:17:23;;;;;;;1.73;1.63;;;;;;;;;;5022915;28;20433;-67
2022/01/19 11:19:49;;;;;;;1.67;1.58;;;;;;;;;;5027012;28;20467;-65
2022/01/19 11:22:17;;;;;;;2.30;2.10;;;;;;;;;;5030971;28;20075;-66
2022/01/19 11:25:03;;;;;;;1.60;1.50;;;;;;;;;;5031343;28;20125;-66
2022/01/19 11:27:42;;;;;;;1.70;1.60;;;;;;;;;;5031997;28;20076;-66
2022/01/19 11:30:09;;;;;;;1.83;1.73;;;;;;;;;;5012311;28;20056;-66
2022/01/19 11:32:34;;;;;;;2.22;2.13;;;;;;;;;;5012419;28;20447;-66
2022/01/19 11:35:02;;;;;;;1.75;1.65;;;;;;;;;;5027114;28;20049;-66
2022/01/19 11:37:34;;;;;;;2.22;2.03;;;;;;;;;;5030892;28;20091;-66
2022/01/19 11:40:08;;;;;;;2.40;2.20;;;;;;;;;;5026744;28;20493;-66
2022/01/19 11:42:33;;;;;;;1.98;1.88;;;;;;;;;;5017140;28;20029;-68
2022/01/19 11:44:58;;;;;;;2.60;2.40;;;;;;;;;;5015016;28;20045;-65
2022/01/19 11:47:29;;;;;;;2.35;2.25;;;;;;;;;;5025203;28;20394;-66
2022/01/19 11:50:08;;;;;;;2.45;2.25;;;;;;;;;;5040790;28;20025;-65
2022/01/19 11:52:39;;;;;;;2.80;2.60;;;;;;;;;;5032218;28;20018;-65
2022/01/19 11:55:34;;;;;;;2.40;2.30;;;;;;;;;;5032003;28;20033;-65
2022/01/19 11:58:20;;;;;;;2.53;2.40;;;;;;;;;;5026158;28;20505;-66
2022/01/19 12:00:46;;;;;;;2.30;2.20;;;;;;;;;;5035858;28;20053;-65
2022/01/19 12:03:16;;;;;;;3.10;2.90;;;;;;;;;;5030401;28;20053;-66
2022/01/19 12:05:42;;;;;;;3.63;3.40;;;;;;;;;;5031065;28;20060;-65
2022/01/19 12:08:24;;;;;;;2.90;2.70;;;;;;;;;;5045006;28;20052;-66
2022/01/19 12:10:50;;;;;;;3.55;2.58;;;;;;;;;;5049583;28;20469;-66
2022/01/19 12:13:28;;;;;;;2.30;2.10;;;;;;;;;;5021120;28;20022;-66
2022/01/19 12:15:59;;;;;;;2.70;2.50;;;;;;;;;;5031727;28;20496;-65
2022/01/19 12:18:45;;;;;;;2.22;2.13;;;;;;;;;;5032534;28;20544;-64
2022/01/19 12:21:12;;;;;;;1.88;1.77;;;;;;;;;;5026658;28;20048;-64
2022/01/19 12:23:39;;;;;;;2.15;1.98;;;;;;;;;;5029911;28;20024;-63
2022/01/19 12:26:06;;;;;;;3.15;2.30;;;;;;;;;;5032307;28;20028;-65
2022/01/19 12:28:47;;;;;;;2.28;2.10;;;;;;;;;;5029661;28;20033;-65
2022/01/19 12:31:24;;;;;;;3.40;2.70;;;;;;;;;;5036227;28;20104;-64
2022/01/19 12:34:07;;;;;;;2.85;2.20;;;;;;;;;;5046361;28;20029;-64
2022/01/19 12:37:02;;;;;;;2.55;2.35;;;;;;;;;;5027891;28;20057;-64
2022/01/19 12:39:30;;;;;;;3.70;1.98;;;;;;;;;;5019667;28;20386;-64
2022/01/19 12:41:58;;;;;;;2.03;1.77;;;;;;;;;;5023953;28;20463;-64
2022/01/19 12:44:42;;;;;;;2.00;1.90;;;;;;;;;;5015373;28;20040;-64
2022/01/19 12:47:29;;;;;;;2.58;2.38;;;;;;;;;;5023036;28;20033;-64
2022/01/19 12:50:03;;;;;;;2.22;2.03;;;;;;;;;;5018560;28;20073;-63
2022/01/19 12:52:30;;;;;;;1.20;1.02;;;;;;;;;;5030666;28;20026;-64
2022/01/19 12:54:56;;;;;;;2.05;1.60;;;;;;;;;;5015447;28;20045;-63
2022/01/19 12:57:21;;;;;;;1.23;1.10;;;;;;;;;;5021314;28;20018;-63
2022/01/19 12:59:48;;;;;;;1.60;1.50;;;;;;;;;;5032200;28;20110;-63
2022/01/19 13:02:14;;;;;;;2.15;1.92;;;;;;;;;;5034650;28;20071;-63
2022/01/19 13:04:41;;;;;;;1.67;1.42;;;;;;;;;;5034023;28;20030;-63
2022/01/19 13:07:17;;;;;;;1.75;1.65;;;;;;;;;;5021858;28;20033;-63
2022/01/19 13:10:06;;;;;;;2.05;1.70;;;;;;;;;;5038444;28;20085;-63
2022/01/19 13:12:43;;;;;;;2.42;1.73;;;;;;;;;;5024997;28;20028;-63
2022/01/19 13:15:09;;;;;;;1.58;1.48;;;;;;;;;;5015359;28;20029;-62
2022/01/19 13:17:45;;;;;;;1.52;1.42;;;;;;;;;;5025354;28;20018;-62
2022/01/19 13:20:12;;;;;;;2.30;2.10;;;;;;;;;;5025732;28;20022;-63
2022/01/19 13:22:44;;;;;;;2.00;1.88;;;;;;;;;;5030761;28;20417;-62
2022/01/19 13:25:22;;;;;;;1.48;1.23;;;;;;;;;;5046275;28;20097;-63
2022/01/19 13:27:47;;;;;;;1.85;1.75;;;;;;;;;;5029725;28;20025;-63
2022/01/19 13:30:13;;;;;;;2.85;2.20;;;;;;;;;;5043703;28;20029;-63
2022/01/19 13:32:39;;;;;;;2.22;2.03;;;;;;;;;;5027643;28;20393;-63
2022/01/19 13:35:07;;;;;;;2.80;2.33;;;;;;;;;;5059037;28;20028;-63
2022/01/19 13:37:34;;;;;;;2.00;1.80;;;;;;;;;;5047247;28;20070;-64
2022/01/19 13:40:06;;;;;;;1.92;1.58;;;;;;;;;;5043460;28;20017;-63
2022/01/19 13:42:31;;;;;;;2.20;1.92;;;;;;;;;;5022107;28;20470;-64
2022/01/19 13:44:58;;;;;;;2.33;2.13;;;;;;;;;;5027350;28;20025;-64
2022/01/19 13:47:29;;;;;;;2.75;2.47;;;;;;;;;;5017065;28;20120;-64
2022/01/19 13:49:55;;;;;;;1.70;1.60;;;;;;;;;;5026182;28;20113;-64
2022/01/19 13:52:21;;;;;;;3.20;2.30;;;;;;;;;;5024774;28;20446;-63
2022/01/19 13:54:47;;;;;;;2.03;1.52;;;;;;;;;;5039141;28;20227;-62
2022/01/19 13:57:12;;;;;;;2.45;1.67;;;;;;;;;;5031209;28;20049;-62
2022/01/19 13:59:37;;;;;;;2.45;1.38;;;;;;;;;;5023782;28;20109;-62
2022/01/19 14:02:11;;;;;;;2.67;1.52;;;;;;;;;;5024363;28;20067;-62
2022/01/19 14:04:36;;;;;;;2.50;2.00;;;;;;;;;;5033338;28;20084;-62
2022/01/19 14:07:05;;;;;;;2.83;2.13;;;;;;;;;;5028039;28;20478;-62
2022/01/19 14:09:32;;;;;;;2.10;1.92;;;;;;;;;;5014701;28;20076;-62
2022/01/19 14:11:58;;;;;;;1.58;1.33;;;;;;;;;;5011772;28;20786;-63
2022/01/19 14:14:32;;;;;;;2.78;2.17;;;;;;;;;;5016868;28;20026;-62
2022/01/19 14:16:57;;;;;;;2.35;2.05;;;;;;;;;;5029793;28;20108;-62
2022/01/19 14:19:24;;;;;;;2.95;2.00;;;;;;;;;;5031392;28;20266;-63
2022/01/19 14:21:53;;;;;;;3.38;2.33;;;;;;;;;;5023090;28;20538;-62
2022/01/19 14:24:18;;;;;;;3.28;2.70;;;;;;;;;;5033055;28;20022;-62
2022/01/19 14:26:50;;;;;;;4.05;2.78;;;;;;;;;;5031966;28;20493;-62
2022/01/19 14:29:16;;;;;;;2.78;2.00;;;;;;;;;;5011904;28;20548;-63
2022/01/19 14:31:50;;;;;;;4.53;2.67;;;;;;;;;;5021642;28;20112;-62
2022/01/19 14:34:15;;;;;;;4.15;3.13;;;;;;;;;;5027420;28;20025;-63
2022/01/19 14:36:40;;;;;;;4.38;2.90;;;;;;;;;;5033004;28;20378;-63
2022/01/19 14:39:05;;;;;;;3.80;3.40;;;;;;;;;;5031496;28;20112;-64
2022/01/19 14:41:35;;;;;;;5.53;3.63;;;;;;;;;;5027175;28;20113;-63
2022/01/19 14:44:05;;;;;;;4.32;3.47;;;;;;;;;;5026380;28;20171;-63
2022/01/19 14:46:43;;;;;;;4.35;3.65;;;;;;;;;;5023546;28;20034;-63
2022/01/19 14:49:10;;;;;;;4.85;2.65;;;;;;;;;;5021400;28;20032;-63
2022/01/19 14:51:37;;;;;;;6.65;3.45;;;;;;;;;;5027888;28;20040;-63
2022/01/19 14:54:23;;;;;;;3.88;2.67;;;;;;;;;;5030633;28;20179;-64
2022/01/19 14:56:48;;;;;;;2.42;2.22;;;;;;;;;;5032109;28;20075;-63
2022/01/19 14:59:18;;;;;;;3.38;2.72;;;;;;;;;;5027772;28;20018;-63
2022/01/19 15:01:44;;;;;;;5.35;3.92;;;;;;;;;;5013392;28;20585;-63
2022/01/19 15:04:10;;;;;;;5.90;3.53;;;;;;;;;;5031670;28;20041;-64
2022/01/19 15:06:36;;;;;;;5.15;3.50;;;;;;;;;;5029387;28;20025;-64
2022/01/19 15:09:02;;;;;;;6.53;3.30;;;;;;;;;;5030667;28;20040;-64
2022/01/19 15:11:28;;;;;;;4.35;3.00;;;;;;;;;;5032373;28;20022;-64
2022/01/19 15:13:53;;;;;;;5.28;3.22;;;;;;;;;;5024406;28;20044;-63
2022/01/19 15:16:18;;;;;;;4.50;3.38;;;;;;;;;;5024240;28;20463;-63
2022/01/19 15:18:44;;;;;;;5.10;3.30;;;;;;;;;;5033627;28;20029;-63
2022/01/19 15:21:09;;;;;;;4.53;3.25;;;;;;;;;;5044032;28;20382;-64
2022/01/19 15:23:34;;;;;;;3.55;2.97;;;;;;;;;;5025621;28;20104;-63
2022/01/19 15:26:00;;;;;;;4.60;3.33;;;;;;;;;;5029792;28;20025;-63
2022/01/19 15:28:26;;;;;;;3.88;3.03;;;;;;;;;;5022756;28;20029;-63
2022/01/19 15:30:51;;;;;;;4.68;3.03;;;;;;;;;;5031268;28;20385;-63
2022/01/19 15:33:17;;;;;;;4.90;3.38;;;;;;;;;;5015552;28;20034;-63
2022/01/19 15:35:42;;;;;;;5.80;3.05;;;;;;;;;;5022642;28;20406;-63
2022/01/19 15:38:07;;;;;;;3.80;2.70;;;;;;;;;;5023984;28;20013;-63
2022/01/19 15:40:34;;;;;;;6.78;2.97;;;;;;;;;;5011387;28;20568;-63
2022/01/19 15:43:00;;;;;;;5.15;3.08;;;;;;;;;;5023280;28;20039;-63
2022/01/19 15:45:29;;;;;;;6.45;3.10;;;;;;;;;;5016181;28;20108;-63
2022/01/19 15:47:56;;;;;;;5.47;3.13;;;;;;;;;;5014581;28;20068;-64
2022/01/19 15:50:21;;;;;;;4.10;3.05;;;;;;;;;;5031534;28;20057;-63
2022/01/19 15:52:46;;;;;;;4.57;2.95;;;;;;;;;;5031087;28;20049;-63
2022/01/19 15:55:11;;;;;;;3.85;2.72;;;;;;;;;;5013941;28;20389;-64
2022/01/19 15:57:37;;;;;;;4.63;2.95;;;;;;;;;;5029912;28;20415;-63
2022/01/19 16:00:05;;;;;;;7.15;3.80;;;;;;;;;;5013474;28;20029;-63
2022/01/19 16:02:30;;;;;;;4.43;3.28;;;;;;;;;;5030894;28;20037;-63
2022/01/19 16:04:55;;;;;;;6.30;3.13;;;;;;;;;;5031205;28;20485;-63
2022/01/19 16:07:20;;;;;;;4.20;2.78;;;;;;;;;;5031540;28;20489;-63
2022/01/19 16:09:46;;;;;;;4.82;3.22;;;;;;;;;;5032021;28;20109;-63
2022/01/19 16:12:11;;;;;;;4.47;3.38;;;;;;;;;;5022512;28;20037;-62
2022/01/19 16:14:36;;;;;;;5.05;3.13;;;;;;;;;;5024688;28;20378;-63
2022/01/19 16:17:01;;;;;;;7.65;3.30;;;;;;;;;;5029445;28;20022;-62
2022/01/19 16:19:29;;;;;;;6.43;3.50;;;;;;;;;;5029415;28;20112;-65